RJTR(METAR)
02/20 20:13
RJTR 201113Z AUTO 00000KT 10SM -RA BKN020 OVC027 13/10 A2985
RMK AO2 RAB13 SLP111=
戻る
トップページへ戻る
IMOC Co,.Ltd.